createdAt,value
2024-03-02T00:00:39.980Z,15.68
2024-03-02T00:03:08.967Z,14.98
2024-03-02T00:05:35.944Z,14.98
2024-03-02T00:08:06.226Z,15.10
2024-03-02T00:10:41.329Z,16.17
2024-03-02T00:13:09.165Z,15.88
2024-03-02T00:15:49.889Z,16.90
2024-03-02T00:18:20.381Z,16.83
2024-03-02T00:20:47.302Z,16.38
2024-03-02T00:23:18.561Z,16.23
2024-03-02T00:25:50.253Z,17.08
2024-03-02T00:28:24.673Z,17.40
2024-03-02T00:30:59.667Z,16.52
2024-03-02T00:33:35.545Z,17.13
2024-03-02T00:36:04.342Z,18.60
2024-03-02T00:38:37.118Z,17.63
2024-03-02T00:41:10.203Z,17.65
2024-03-02T00:43:55.653Z,17.83
2024-03-02T00:46:23.039Z,16.90
2024-03-02T00:48:55.797Z,18.30
2024-03-02T00:51:24.534Z,19.38
2024-03-02T00:53:53.999Z,18.45
2024-03-02T00:56:20.776Z,18.85
2024-03-02T00:58:47.742Z,19.20
2024-03-02T01:01:15.812Z,17.60
2024-03-02T01:03:43.146Z,18.58
2024-03-02T01:06:10.172Z,20.20
2024-03-02T01:08:39.990Z,18.67
2024-03-02T01:11:06.824Z,19.95
2024-03-02T01:13:33.917Z,18.53
2024-03-02T01:16:03.065Z,19.38
2024-03-02T01:18:29.825Z,20.63
2024-03-02T01:20:57.167Z,18.50
2024-03-02T01:23:24.694Z,19.48
2024-03-02T01:25:53.095Z,20.70
2024-03-02T01:28:22.960Z,21.73
2024-03-02T01:30:50.556Z,21.35
2024-03-02T01:33:21.289Z,20.17
2024-03-02T01:35:48.801Z,21.17
2024-03-02T01:38:15.514Z,21.13
2024-03-02T01:40:43.247Z,21.88
2024-03-02T01:43:10.271Z,20.38
2024-03-02T01:45:39.657Z,20.92
2024-03-02T01:48:08.415Z,20.80
2024-03-02T01:50:36.192Z,21.10
2024-03-02T01:53:04.604Z,20.63
2024-03-02T01:55:32.165Z,20.13
2024-03-02T01:57:59.907Z,19.20
2024-03-02T02:00:28.024Z,20.25
2024-03-02T02:02:56.031Z,18.90
2024-03-02T02:05:22.866Z,18.70
2024-03-02T02:07:50.108Z,19.77
2024-03-02T02:10:16.899Z,18.95
2024-03-02T02:12:43.781Z,18.58
2024-03-02T02:15:27.404Z,18.33
2024-03-02T02:17:55.299Z,18.45
2024-03-02T02:20:22.057Z,18.52
2024-03-02T02:23:02.968Z,17.70
2024-03-02T02:25:30.797Z,18.60
2024-03-02T02:27:59.281Z,18.97
2024-03-02T02:30:31.057Z,17.58
2024-03-02T02:32:58.513Z,18.83
2024-03-02T02:35:28.278Z,18.38
2024-03-02T02:37:56.629Z,18.00
2024-03-02T02:40:23.731Z,18.93
2024-03-02T02:42:51.817Z,17.48
2024-03-02T02:45:18.825Z,17.48
2024-03-02T02:47:45.965Z,17.25
2024-03-02T02:50:13.691Z,17.58
2024-03-02T02:52:42.409Z,17.57
2024-03-02T02:55:11.338Z,17.20
2024-03-02T02:57:40.761Z,17.10
2024-03-02T03:00:16.702Z,17.30
2024-03-02T03:02:45.735Z,16.80
2024-03-02T03:05:14.563Z,15.93
2024-03-02T03:07:44.437Z,16.65
2024-03-02T03:10:11.484Z,16.95
2024-03-02T03:12:38.425Z,16.90
2024-03-02T03:15:09.808Z,16.00
2024-03-02T03:17:37.068Z,15.27
2024-03-02T03:20:05.357Z,15.85
2024-03-02T03:22:36.654Z,16.73
2024-03-02T03:25:05.121Z,16.05
2024-03-02T03:27:32.233Z,16.58
2024-03-02T03:29:58.836Z,15.63
2024-03-02T03:32:26.191Z,15.98
2024-03-02T03:34:52.858Z,15.95
2024-03-02T03:37:19.500Z,16.92
2024-03-02T03:39:46.222Z,16.23
2024-03-02T03:42:12.887Z,16.20
2024-03-02T03:44:40.799Z,15.93
2024-03-02T03:47:08.008Z,17.15
2024-03-02T03:49:34.660Z,16.55
2024-03-02T03:52:01.701Z,16.63
2024-03-02T03:54:28.403Z,16.80
2024-03-02T03:56:55.258Z,16.55
2024-03-02T03:59:21.861Z,16.00
2024-03-02T04:01:48.597Z,16.67
2024-03-02T04:04:15.567Z,16.08
2024-03-02T04:06:42.293Z,15.87
2024-03-02T04:09:09.199Z,16.20
2024-03-02T04:11:36.079Z,14.95
2024-03-02T04:14:02.703Z,14.95
2024-03-02T04:16:30.029Z,15.77
2024-03-02T04:18:56.719Z,15.73
2024-03-02T04:21:23.587Z,15.52
2024-03-02T04:23:50.422Z,15.13
2024-03-02T04:26:21.047Z,15.93
2024-03-02T04:28:48.026Z,15.00
2024-03-02T04:31:18.139Z,14.87
2024-03-02T04:33:44.915Z,14.60
2024-03-02T04:36:11.627Z,15.52
2024-03-02T04:38:39.525Z,15.18
2024-03-02T04:41:09.062Z,14.57
2024-03-02T04:43:36.228Z,16.23
2024-03-02T04:46:03.333Z,15.85
2024-03-02T04:48:30.655Z,16.70
2024-03-02T04:50:57.391Z,15.63
2024-03-02T04:53:24.085Z,15.65
2024-03-02T04:56:13.923Z,15.23
2024-03-02T04:58:40.597Z,16.13
2024-03-02T05:01:07.554Z,16.60
2024-03-02T05:03:36.142Z,16.55
2024-03-02T05:06:02.917Z,17.90
2024-03-02T05:08:29.513Z,17.83
2024-03-02T05:10:56.152Z,17.98
2024-03-02T05:13:22.979Z,17.02
2024-03-02T05:15:49.789Z,18.42
2024-03-02T05:18:16.517Z,17.73
2024-03-02T05:20:43.199Z,16.03
2024-03-02T05:23:10.066Z,17.63
2024-03-02T05:25:36.679Z,18.10
2024-03-02T05:28:03.517Z,17.90
2024-03-02T05:30:30.275Z,16.42
2024-03-02T05:32:56.937Z,17.03
2024-03-02T05:35:23.569Z,17.00
2024-03-02T05:37:50.234Z,23.15
2024-03-02T05:40:16.882Z,19.75
2024-03-02T05:42:43.571Z,17.35
2024-03-02T05:45:10.836Z,16.60
2024-03-02T05:47:37.752Z,16.08
2024-03-02T05:50:05.311Z,15.68
2024-03-02T05:52:32.091Z,15.55
2024-03-02T05:54:58.993Z,16.23
2024-03-02T05:57:50.306Z,16.07
2024-03-02T06:00:18.766Z,16.00
2024-03-02T06:02:46.672Z,15.82
2024-03-02T06:05:14.409Z,16.33
2024-03-02T06:07:41.077Z,15.10
2024-03-02T06:10:13.873Z,16.30
2024-03-02T06:12:42.493Z,16.80
2024-03-02T06:15:12.421Z,17.92
2024-03-02T06:17:39.241Z,17.05
2024-03-02T06:20:07.733Z,17.23
2024-03-02T06:22:34.363Z,18.17
2024-03-02T06:25:01.039Z,17.92
2024-03-02T06:27:27.744Z,20.48
2024-03-02T06:29:56.036Z,19.02
2024-03-02T06:32:24.308Z,18.88
2024-03-02T06:34:51.268Z,19.43
2024-03-02T06:37:18.075Z,18.75
2024-03-02T06:39:45.826Z,19.40
2024-03-02T06:42:12.671Z,18.48
2024-03-02T06:44:39.279Z,16.40
2024-03-02T06:47:06.182Z,15.13
2024-03-02T06:49:35.317Z,14.85
2024-03-02T06:52:06.722Z,15.05
2024-03-02T06:54:35.318Z,14.30
2024-03-02T06:57:13.816Z,14.63
2024-03-02T06:59:40.554Z,13.80
2024-03-02T07:02:09.606Z,15.70
2024-03-02T07:04:36.425Z,16.10
2024-03-02T07:07:03.151Z,16.08
2024-03-02T07:09:29.863Z,16.23
2024-03-02T07:11:59.278Z,14.83
2024-03-02T07:14:46.152Z,17.27
2024-03-02T07:17:14.994Z,15.60
2024-03-02T07:19:44.773Z,15.35
2024-03-02T07:22:11.523Z,15.18
2024-03-02T07:24:50.908Z,13.53
2024-03-02T07:27:24.501Z,14.30
2024-03-02T07:29:51.145Z,15.98
2024-03-02T07:32:21.043Z,15.27
2024-03-02T07:34:47.912Z,15.85
2024-03-02T07:37:14.535Z,16.83
2024-03-02T07:39:41.286Z,17.95
2024-03-02T07:42:09.377Z,17.23
2024-03-02T07:44:36.488Z,17.52
2024-03-02T07:47:03.408Z,19.40
2024-03-02T07:49:31.710Z,18.83
2024-03-02T07:51:58.423Z,18.88
2024-03-02T07:54:25.374Z,19.02
2024-03-02T07:56:52.462Z,18.08
2024-03-02T07:59:19.532Z,18.10
2024-03-02T08:01:46.573Z,17.60
2024-03-02T08:04:13.161Z,19.50
2024-03-02T08:06:39.902Z,17.90
2024-03-02T08:09:10.984Z,17.38
2024-03-02T08:11:40.671Z,16.95
2024-03-02T08:14:07.367Z,16.43
2024-03-02T08:16:34.568Z,16.30
2024-03-02T08:19:02.565Z,16.30
2024-03-02T08:21:32.118Z,16.52
2024-03-02T08:24:03.681Z,15.82
2024-03-02T08:26:32.687Z,17.10
2024-03-02T08:29:00.842Z,17.13
2024-03-02T08:31:27.500Z,17.17
2024-03-02T08:33:54.145Z,17.20
2024-03-02T08:36:21.136Z,17.98
2024-03-02T08:38:50.241Z,16.70
2024-03-02T08:41:17.382Z,17.58
2024-03-02T08:43:44.164Z,17.55
2024-03-02T08:46:10.947Z,17.77
2024-03-02T08:48:37.800Z,17.98
2024-03-02T08:51:07.419Z,17.63
2024-03-02T08:53:34.269Z,16.95
2024-03-02T08:56:02.879Z,18.30
2024-03-02T08:58:30.060Z,18.15
2024-03-02T09:00:56.787Z,18.35
2024-03-02T09:03:23.587Z,18.40
2024-03-02T09:05:50.594Z,18.10
2024-03-02T09:08:17.362Z,19.45
2024-03-02T09:10:45.160Z,18.92
2024-03-02T09:13:11.891Z,19.17
2024-03-02T09:15:41.107Z,18.90
2024-03-02T09:18:08.225Z,16.70
2024-03-02T09:20:35.040Z,18.83
2024-03-02T09:23:01.661Z,19.15
2024-03-02T09:25:28.297Z,19.85
2024-03-02T09:27:55.117Z,19.80
2024-03-02T09:30:21.800Z,19.40
2024-03-02T09:32:50.515Z,18.45
2024-03-02T09:35:17.570Z,18.73
2024-03-02T09:37:44.314Z,20.98
2024-03-02T09:40:11.541Z,18.20
2024-03-02T09:42:38.910Z,18.85
2024-03-02T09:45:06.662Z,21.13
2024-03-02T09:47:33.420Z,22.92
2024-03-02T09:50:00.668Z,19.13
2024-03-02T09:52:27.530Z,19.50
2024-03-02T09:54:54.316Z,19.20
2024-03-02T09:57:21.165Z,19.17
2024-03-02T09:59:48.033Z,19.67
2024-03-02T10:02:15.145Z,19.17
2024-03-02T10:07:39.587Z,20.20
2024-03-02T10:10:55.466Z,21.08
2024-03-02T10:29:03.584Z,19.60
2024-03-02T10:48:46.477Z,17.33
2024-03-02T10:51:23.705Z,17.35
2024-03-02T11:01:02.610Z,17.08
2024-03-02T11:10:58.308Z,16.67
2024-03-02T11:27:47.754Z,14.07
2024-03-02T11:40:29.177Z,14.02
2024-03-02T11:50:36.684Z,17.17
2024-03-02T11:52:55.650Z,16.02
2024-03-02T11:55:41.517Z,16.67
2024-03-02T12:01:37.442Z,17.58
2024-03-02T12:10:02.037Z,17.05
2024-03-02T12:13:02.233Z,15.35
2024-03-02T12:15:38.269Z,15.18
2024-03-02T12:18:08.827Z,12.10
2024-03-02T12:20:50.862Z,13.95
2024-03-02T12:23:27.299Z,17.52
2024-03-02T12:56:16.040Z,15.70
2024-03-02T12:58:42.919Z,14.60
2024-03-02T13:01:10.725Z,14.73
2024-03-02T13:03:39.352Z,14.82
2024-03-02T13:06:07.603Z,14.27
2024-03-02T13:08:34.858Z,13.82
2024-03-02T13:11:01.502Z,15.57
2024-03-02T13:13:32.089Z,13.73
2024-03-02T13:15:59.265Z,13.68
2024-03-02T13:18:26.370Z,14.15
2024-03-02T13:20:53.173Z,14.95
2024-03-02T13:23:21.339Z,14.73
2024-03-02T13:25:48.660Z,14.30
2024-03-02T13:28:15.388Z,14.40
2024-03-02T13:30:42.175Z,13.80
2024-03-02T13:33:08.956Z,15.02
2024-03-02T13:35:35.605Z,15.63
2024-03-02T13:38:02.279Z,16.70
2024-03-02T13:40:30.374Z,16.00
2024-03-02T13:42:57.104Z,15.93
2024-03-02T13:45:23.998Z,16.55
2024-03-02T13:47:50.870Z,15.07
2024-03-02T13:50:17.525Z,15.90
2024-03-02T13:52:44.215Z,19.88
2024-03-02T13:55:10.921Z,16.15
2024-03-02T13:57:37.815Z,14.48
2024-03-02T14:00:43.706Z,16.45
2024-03-02T14:06:54.032Z,15.20
2024-03-02T14:19:30.710Z,9.97
2024-03-02T14:22:05.513Z,10.63
2024-03-02T14:24:46.611Z,11.48
2024-03-02T14:27:25.487Z,9.07
2024-03-02T14:30:31.492Z,13.15
2024-03-02T14:33:15.089Z,10.83
2024-03-02T14:36:36.044Z,11.93
2024-03-02T14:39:33.506Z,14.02
2024-03-02T14:42:10.699Z,13.60
2024-03-02T14:44:51.132Z,13.68
2024-03-02T14:47:18.344Z,14.57
2024-03-02T14:49:51.238Z,14.68
2024-03-02T14:52:22.542Z,14.85
2024-03-02T14:55:10.245Z,14.27
2024-03-02T14:58:15.685Z,14.63
2024-03-02T15:01:00.461Z,14.10
2024-03-02T15:04:07.698Z,14.00
2024-03-02T15:06:50.111Z,14.18
2024-03-02T15:10:00.952Z,14.82
2024-03-02T15:12:31.914Z,14.90
2024-03-02T15:15:11.008Z,15.73
2024-03-02T15:17:47.075Z,14.65
2024-03-02T15:20:40.764Z,15.25
2024-03-02T15:23:45.791Z,15.30
2024-03-02T15:26:17.840Z,14.75
2024-03-02T15:28:51.636Z,16.90
2024-03-02T15:31:24.973Z,16.83
2024-03-02T15:34:21.768Z,16.17
2024-03-02T15:36:51.204Z,17.05
2024-03-02T15:39:22.738Z,16.73
2024-03-02T15:41:55.783Z,16.53
2024-03-02T15:44:46.348Z,17.00
2024-03-02T15:47:22.525Z,18.25
2024-03-02T15:49:58.677Z,16.42
2024-03-02T15:52:35.493Z,16.63
2024-03-02T15:55:15.568Z,16.23
2024-03-02T15:57:42.664Z,16.17
2024-03-02T16:00:09.666Z,16.30
2024-03-02T16:02:36.362Z,16.85
2024-03-02T16:05:03.007Z,14.85
2024-03-02T16:07:29.794Z,15.63
2024-03-02T16:09:56.388Z,15.70
2024-03-02T16:12:23.419Z,15.57
2024-03-02T16:14:50.449Z,16.10
2024-03-02T16:17:17.090Z,14.73
2024-03-02T16:19:44.149Z,15.17
2024-03-02T16:22:12.647Z,14.98
2024-03-02T16:24:40.762Z,14.27
2024-03-02T16:27:07.466Z,16.08
2024-03-02T16:29:34.511Z,15.85
2024-03-02T16:32:02.108Z,16.33
2024-03-02T16:34:30.007Z,15.20
2024-03-02T16:36:57.361Z,14.95
2024-03-02T16:39:24.744Z,16.13
2024-03-02T16:41:51.596Z,15.73
2024-03-02T16:44:18.245Z,16.13
2024-03-02T16:46:46.581Z,16.13
2024-03-02T16:49:13.549Z,16.20
2024-03-02T16:51:44.576Z,16.58
2024-03-02T16:54:11.309Z,15.77
2024-03-02T16:56:42.889Z,15.30
2024-03-02T16:59:10.243Z,16.20
2024-03-02T17:01:37.334Z,15.88
2024-03-02T17:04:06.981Z,15.25
2024-03-02T17:06:34.184Z,16.15
2024-03-02T17:09:01.193Z,16.03
2024-03-02T17:20:53.768Z,15.60
2024-03-02T17:23:20.365Z,16.13
2024-03-02T17:25:46.992Z,15.27
2024-03-02T17:28:24.142Z,15.73
2024-03-02T17:30:50.827Z,14.13
2024-03-02T17:33:17.670Z,14.80
2024-03-02T17:35:48.572Z,14.43
2024-03-02T17:38:15.695Z,14.77
2024-03-02T17:40:43.032Z,14.90
2024-03-02T17:43:10.065Z,13.73
2024-03-02T17:45:36.738Z,14.07
2024-03-02T17:48:03.648Z,14.07
2024-03-02T17:50:30.738Z,13.77
2024-03-02T17:52:57.410Z,13.43
2024-03-02T17:55:24.067Z,13.80
2024-03-02T17:57:51.701Z,13.52
2024-03-02T18:00:19.096Z,13.57
2024-03-02T18:02:45.914Z,13.77
2024-03-02T18:05:12.615Z,14.35
2024-03-02T18:07:39.293Z,14.25
2024-03-02T18:10:07.001Z,14.35
2024-03-02T18:12:33.778Z,14.90
2024-03-02T18:15:03.113Z,14.32
2024-03-02T18:17:29.682Z,14.27
2024-03-02T18:19:56.334Z,29.10
2024-03-02T18:22:23.162Z,19.15
2024-03-02T18:24:52.900Z,15.53
2024-03-02T18:27:19.864Z,14.63
2024-03-02T18:29:46.455Z,15.93
2024-03-02T18:32:14.981Z,14.65
2024-03-02T18:34:42.980Z,14.57
2024-03-02T18:37:11.495Z,15.00
2024-03-02T18:39:38.127Z,15.02
2024-03-02T18:42:05.345Z,14.48
2024-03-02T18:44:31.923Z,14.30
2024-03-02T18:46:58.547Z,15.15
2024-03-02T18:49:25.219Z,14.83
2024-03-02T18:51:52.547Z,14.05
2024-03-02T18:54:19.387Z,15.38
2024-03-02T18:56:46.153Z,16.52
2024-03-02T18:59:12.802Z,17.10
2024-03-02T19:01:39.515Z,14.63
2024-03-02T19:04:07.406Z,16.77
2024-03-02T19:06:34.125Z,16.65
2024-03-02T19:09:00.916Z,15.30
2024-03-02T19:11:27.587Z,21.38
2024-03-02T19:13:57.037Z,17.90
2024-03-02T19:16:24.016Z,17.35
2024-03-02T19:18:50.629Z,18.85
2024-03-02T19:21:17.204Z,19.50
2024-03-02T19:23:45.510Z,19.70
2024-03-02T19:26:21.287Z,18.63
2024-03-02T19:28:47.989Z,19.85
2024-03-02T19:31:14.815Z,19.38
2024-03-02T19:33:41.419Z,17.58
2024-03-02T19:36:08.297Z,17.52
2024-03-02T19:38:36.378Z,19.63
2024-03-02T19:41:03.072Z,22.85
2024-03-02T19:43:29.715Z,19.98
2024-03-02T19:45:56.440Z,22.85
2024-03-02T19:48:23.772Z,36.33
2024-03-02T19:50:51.450Z,41.17
2024-03-02T19:53:18.323Z,33.38
2024-03-02T19:55:45.688Z,18.98
2024-03-02T19:58:12.601Z,17.85
2024-03-02T20:00:39.740Z,16.00
2024-03-02T20:03:06.496Z,17.93
2024-03-02T20:05:33.129Z,16.95
2024-03-02T20:07:59.910Z,17.38
2024-03-02T20:10:34.794Z,16.27
2024-03-02T20:13:04.280Z,15.30
2024-03-02T20:15:30.917Z,15.83
2024-03-02T20:17:57.502Z,15.30
2024-03-02T20:20:24.298Z,15.30
2024-03-02T20:22:51.275Z,15.55
2024-03-02T20:25:18.182Z,16.60
2024-03-02T20:27:46.483Z,17.23
2024-03-02T20:30:13.717Z,18.48
2024-03-02T20:32:40.398Z,18.85
2024-03-02T20:35:07.656Z,19.08
2024-03-02T20:37:38.762Z,19.27
2024-03-02T20:40:05.991Z,16.23
2024-03-02T20:42:33.108Z,18.05
2024-03-02T20:45:00.588Z,16.73
2024-03-02T20:47:27.222Z,15.75
2024-03-02T20:49:53.959Z,16.08
2024-03-02T20:52:21.131Z,15.63
2024-03-02T20:54:48.277Z,16.13
2024-03-02T20:57:14.979Z,16.92
2024-03-02T20:59:41.590Z,16.45
2024-03-02T21:02:10.934Z,15.88
2024-03-02T21:04:40.457Z,14.97
2024-03-02T21:07:07.083Z,15.45
2024-03-02T21:09:33.814Z,15.90
2024-03-02T21:12:00.505Z,15.30
2024-03-02T21:14:27.258Z,15.55
2024-03-02T21:16:58.730Z,14.43
2024-03-02T21:19:25.406Z,14.88
2024-03-02T21:21:54.124Z,13.57
2024-03-02T21:24:39.115Z,13.52
2024-03-02T21:27:06.928Z,13.05
2024-03-02T21:29:33.743Z,13.60
2024-03-02T21:32:00.302Z,14.93
2024-03-02T21:34:30.093Z,14.10
2024-03-02T21:36:59.219Z,14.25
2024-03-02T21:39:32.373Z,14.10
2024-03-02T21:42:32.679Z,13.50
2024-03-02T21:44:59.317Z,13.10
2024-03-02T21:47:26.040Z,13.27
2024-03-02T21:49:52.681Z,14.15
2024-03-02T21:52:20.046Z,15.95
2024-03-02T21:54:47.586Z,14.93
2024-03-02T21:57:21.651Z,13.98
2024-03-02T21:59:48.302Z,13.48
2024-03-02T22:02:18.979Z,13.65
2024-03-02T22:04:45.537Z,13.77
2024-03-02T22:07:15.200Z,14.13
2024-03-02T22:09:41.968Z,14.05
2024-03-02T22:12:08.811Z,14.18
2024-03-02T22:14:35.506Z,14.18
2024-03-02T22:17:02.247Z,15.02
2024-03-02T22:19:28.893Z,14.13
2024-03-02T22:21:55.533Z,13.60
2024-03-02T22:24:24.426Z,14.55
2024-03-02T22:26:53.400Z,15.38
2024-03-02T22:29:20.018Z,14.70
2024-03-02T22:31:46.690Z,15.47
2024-03-02T22:34:13.497Z,14.80
2024-03-02T22:36:42.368Z,16.02
2024-03-02T22:39:09.459Z,15.65
2024-03-02T22:41:36.043Z,14.90
2024-03-02T22:44:05.470Z,16.33
2024-03-02T22:46:32.075Z,15.15
2024-03-02T22:48:58.752Z,17.58
2024-03-02T22:51:27.210Z,15.85
2024-03-02T22:53:54.323Z,15.82
2024-03-02T22:56:23.031Z,15.20
2024-03-02T22:58:49.959Z,16.45
2024-03-02T23:01:18.723Z,15.98
2024-03-02T23:03:45.484Z,17.05
2024-03-02T23:06:12.183Z,16.08
2024-03-02T23:08:38.849Z,16.17
2024-03-02T23:11:25.736Z,15.70
2024-03-02T23:13:55.523Z,16.50
2024-03-02T23:16:22.150Z,15.77
2024-03-02T23:18:52.753Z,15.82
2024-03-02T23:21:19.706Z,15.70
2024-03-02T23:23:46.499Z,16.35
2024-03-02T23:26:13.098Z,16.42
2024-03-02T23:28:39.991Z,15.25
2024-03-02T23:31:06.709Z,17.40
2024-03-02T23:33:33.390Z,16.30
2024-03-02T23:36:00.029Z,15.38
2024-03-02T23:38:29.113Z,17.08
2024-03-02T23:41:09.130Z,16.92
2024-03-02T23:43:37.000Z,16.65
2024-03-02T23:46:06.049Z,16.73
2024-03-02T23:48:32.671Z,16.20
2024-03-02T23:50:59.353Z,16.33
2024-03-02T23:53:26.033Z,16.67
2024-03-02T23:55:53.409Z,16.98
2024-03-02T23:58:20.790Z,16.60
